x

Sentry Shoal (46131) Wave Buoy

1:00am - Fri 25th Apr 2014 All times are PDT. -7 hours from GMT.

  • Sig Wave height 1.6ft
  • Peak Period 4s
  • Wind
    16mph, 20mph gusts
  • Sea Temp 48°f
  • Air Temp 48°f
  • Sea Pressure 1010.4mb
  • Sentry Shoal
  • Sentry Shoal

More Historic Weather Station data

Upgrade to MSW Pro to gain access to the past 30 days of data for over 8000 Wavebouys and Weather Stations around the globe.

Join Pro

Comparision Forecast

View Surf forecast
   
Fri 04/25 1:00am 1.6ft 4s 16 20 mph 1010.4mb 48f 48f
12:00am 1.6ft 4s 13 16 mph 1010.1mb 48f 49f
Thu 04/24 11:00pm 1.6ft 4s 9 11 mph 1009.9mb 48f 49f
10:00pm 2ft 4s 11 16 mph 1009.4mb 48f 49f
9:00pm 2ft 4s 13 18 mph 1008.8mb 48f 50f
8:00pm 2ft 4s 13 16 mph 1008mb 48f 51f
7:00pm 2.5ft 4s 9 13 mph 1007.6mb 48f 50f
6:00pm 2.5ft 4s 16 20 mph 1006.8mb 48f 51f
5:00pm 3ft 4s 18 22 mph 1006.2mb 48f 51f
4:00pm 3ft 4s 22 25 mph 1005.5mb 48f 51f
3:00pm 3.5ft 5s 22 25 mph 1004.8mb 48f 50f
2:00pm 4.5ft 5s 22 27 mph 1004mb 48f 51f
1:00pm 4.5ft 5s 25 29 mph 1003.2mb 48f 50f
12:00pm 5ft 5s 25 29 mph 1002.6mb 48f 50f
11:00am 4.5ft 5s 22 29 mph 1001.9mb 48f 50f
10:00am 5.5ft 6s 22 29 mph 1001mb 48f 49f
9:00am 4.5ft 5s 22 27 mph 999.9mb 48f 49f
8:00am 5ft 6s 22 27 mph 999.4mb 48f 49f
7:00am 5ft 5s 22 27 mph 998.9mb 48f 49f
6:00am 3.5ft 6s 11 13 mph 998.9mb 48f 47f
5:00am 2.5ft 5s 7 11 mph 999mb 48f 46f
4:00am 1.3ft 4s 7 9 mph 999.1mb 48f 45f
3:00am 1.3ft 4s 7 9 mph 999.1mb 48f 45f
2:00am 2ft 4s 11 13 mph 999.6mb 48f 46f
1:00am 2.5ft 4s 16 20 mph 1000.4mb 48f 47f
12:00am 3ft 4s 20 25 mph 1001.5mb 48f 47f
Wed 04/23 11:00pm 3.5ft 5s 18 22 mph 1002.8mb 48f 48f
10:00pm 3ft 5s 22 27 mph 1003.4mb 48f 49f
9:00pm 2.5ft 5s 18 25 mph 1004.1mb 48f 50f
8:00pm 3ft 4s 13
mph
1004.7mb 48f 50f
7:00pm 3ft 5s 18 22 mph 1005.7mb 48f 50f
6:00pm 3ft 4s 16 20 mph 1006.8mb 48f 49f
5:00pm 3.5ft 4s 13 16 mph 1007.4mb 48f 49f
4:00pm 3ft 4s 18 20 mph 1007.9mb 48f 49f
3:00pm 3ft 4s 20 25 mph 1008.7mb 48f 49f
2:00pm 2.5ft 4s 18 20 mph 1009.2mb 48f 49f
1:00pm 2.5ft 4s 16 20 mph 1009.4mb 48f 49f
12:00pm 2ft 4s 16 20 mph 1009.9mb 49f 49f
11:00am 1.6ft 3s 18 20 mph 1010mb 49f 48f
10:00am 1.6ft 3s 16 20 mph 1009.9mb 48f 47f
9:00am 2ft 3s 18 20 mph 1009.9mb 48f 47f
8:00am  -   -  18
mph
- - -
7:00am 1.6ft 3s 16 20 mph 1010mb 48f 45f
6:00am 1.3ft 3s 16 18 mph 1009.6mb 48f 47f
5:00am 1.3ft 4s 16 18 mph 1009.2mb 48f 47f
4:00am 1.6ft 4s 16 18 mph 1009.1mb 48f 47f
3:00am 2ft 4s 16 18 mph 1009mb 48f 47f
2:00am 1.6ft 3s 18 25 mph 1008.8mb 48f 48f
1:00am 1.6ft 3s 18 20 mph 1008.9mb 48f 47f
12:00am 1.3ft 3s 16 18 mph 1008.9mb 48f 48f
Tue 04/22 11:00pm 1ft 3s 16 18 mph 1008.7mb 49f 48f
10:00pm 1ft 3s 13 16 mph 1008.8mb 49f 47f
9:00pm 1.3ft 4s 11 13 mph 1008.6mb 49f 49f
8:00pm 1.6ft 4s 16 18 mph 1008.3mb 49f 49f
7:00pm 2.5ft 4s 16 18 mph 1008.2mb 49f 50f
6:00pm 2.5ft 4s 20 22 mph 1008.3mb 49f 50f
5:00pm 1.6ft 3s 25 29 mph 1008.2mb 49f 50f
4:00pm 0.7ft 2s 18 22 mph 1008.5mb 50f 51f
3:00pm 0.3ft 2s 9 11 mph 1009.2mb 50f 51f
2:00pm 0.3ft 3s 9 11 mph 1009.2mb 50f 49f
1:00pm  -  3s 11 13 mph 1009.4mb 50f 48f
12:00pm  -  2s 7 9 mph 1009.6mb 51f 47f
11:00am 0.3ft 3s  -  mph 1009.5mb 50f 47f
10:00am 0.3ft 2s  -  2 mph 1009.3mb 49f 45f
9:00am 0.3ft 4s 2
mph
1009.4mb 49f 45f
8:00am 0.3ft 2s 4 7 mph 1009.7mb 49f 44f
7:00am 0.3ft 2s 9 11 mph 1009.7mb 48f 45f
6:00am 0.3ft 2s 9 11 mph 1009.5mb 48f 45f
5:00am 0.3ft 2s 9 11 mph 1009.5mb 48f 45f
4:00am 0.3ft 2s 9 11 mph 1009.4mb 48f 46f
3:00am 0.3ft 2s 9 11 mph 1009.5mb 48f 46f
2:00am 0.3ft 2s 9
mph
1010.1mb 48f 46f
1:00am 0.7ft 2s 11 13 mph 1010.6mb 48f 47f
12:00am 0.7ft 2s 13 16 mph 1010.6mb 48f 47f
Mon 04/21 11:00pm 0.3ft 2s 18 20 mph 1011.2mb 48f 47f
10:00pm  -  2s 4
mph
1011.8mb 48f 47f
9:00pm  -  2s 4
mph
1011.9mb 48f 47f
8:00pm  -  4s 2
mph
1012.3mb 48f 47f
7:00pm  -  3s 2
mph
1013mb 48f 48f
6:00pm  -  2s 2 4 mph 1013.7mb 49f 48f
5:00pm  -  2s  -  2 mph 1014.2mb 49f 48f
4:00pm 0.3ft 2s  -  2 mph 1014.7mb 49f 48f
3:00pm 0.3ft 3s 4
mph
1015.3mb 49f 48f
2:00pm 0.3ft 2s 7
mph
1015.7mb 49f 47f
1:00pm 0.3ft 2s 7
mph
1016.1mb 48f 47f
12:00pm 0.3ft 3s 7 9 mph 1016.3mb 48f 46f
11:00am 0.3ft 2s 9
mph
1016.7mb 48f 46f
10:00am 0.3ft 2s 7 9 mph 1016.8mb 48f 46f